createdAt,value
2019-01-29T00:01:48.826Z,96.38
2019-01-29T00:04:17.237Z,96.50
2019-01-29T00:06:45.706Z,96.61
2019-01-29T00:09:14.237Z,96.66
2019-01-29T00:11:43.096Z,96.79
2019-01-29T00:14:11.683Z,96.84
2019-01-29T00:16:40.200Z,96.81
2019-01-29T00:19:09.101Z,96.83
2019-01-29T00:21:37.797Z,96.90
2019-01-29T00:24:06.328Z,96.81
2019-01-29T00:26:35.117Z,96.59
2019-01-29T00:29:03.699Z,96.83
2019-01-29T00:31:32.158Z,96.97
2019-01-29T00:34:00.979Z,96.98
2019-01-29T00:36:29.472Z,96.87
2019-01-29T00:38:57.947Z,96.86
2019-01-29T00:41:26.360Z,96.78
2019-01-29T00:43:54.815Z,96.57
2019-01-29T00:49:17.805Z,96.69
2019-01-29T00:51:46.370Z,96.64
2019-01-29T00:54:14.919Z,96.73
2019-01-29T00:56:43.389Z,96.65
2019-01-29T00:59:11.875Z,96.50
2019-01-29T01:02:20.367Z,96.63
2019-01-29T01:04:49.123Z,96.04
2019-01-29T01:07:17.613Z,96.16
2019-01-29T01:09:46.176Z,96.09
2019-01-29T01:12:14.691Z,96.03
2019-01-29T01:14:43.213Z,95.16
2019-01-29T01:17:11.702Z,95.17
2019-01-29T01:19:40.168Z,94.91
2019-01-29T01:22:08.772Z,95.35
2019-01-29T01:24:37.432Z,94.87
2019-01-29T01:27:05.966Z,95.04
2019-01-29T01:29:34.467Z,95.29
2019-01-29T01:32:03.144Z,94.77
2019-01-29T01:34:31.735Z,94.49
2019-01-29T01:37:00.236Z,94.96
2019-01-29T01:39:28.809Z,95.06
2019-01-29T01:41:57.263Z,95.07
2019-01-29T01:44:25.823Z,95.27
2019-01-29T01:46:54.464Z,95.34
2019-01-29T01:49:23.000Z,95.50
2019-01-29T01:51:51.450Z,95.59
2019-01-29T01:54:19.965Z,95.83
2019-01-29T01:56:48.788Z,96.37
2019-01-29T01:59:17.343Z,96.41
2019-01-29T02:01:45.929Z,96.41
2019-01-29T02:04:14.750Z,96.82
2019-01-29T02:06:43.236Z,96.62
2019-01-29T02:09:11.845Z,96.20
2019-01-29T02:11:40.208Z,96.01
2019-01-29T02:14:08.750Z,95.98
2019-01-29T02:16:37.356Z,96.11
2019-01-29T02:19:05.836Z,96.01
2019-01-29T02:21:34.323Z,96.04
2019-01-29T02:24:02.847Z,95.44
2019-01-29T02:26:31.300Z,94.96
2019-01-29T02:28:59.845Z,95.22
2019-01-29T02:31:28.418Z,95.16
2019-01-29T02:33:56.830Z,94.31
2019-01-29T02:36:25.297Z,93.79
2019-01-29T02:38:53.749Z,94.33
2019-01-29T02:41:22.266Z,94.30
2019-01-29T02:43:50.717Z,93.99
2019-01-29T02:46:19.294Z,94.45
2019-01-29T02:48:47.763Z,94.12
2019-01-29T02:51:17.928Z,94.37
2019-01-29T02:53:46.641Z,93.69
2019-01-29T02:56:15.157Z,93.86
2019-01-29T03:08:25.549Z,94.79
2019-01-29T03:10:54.101Z,93.62
2019-01-29T03:13:22.579Z,94.18
2019-01-29T03:15:51.417Z,94.36
2019-01-29T03:18:20.103Z,94.16
2019-01-29T03:20:48.644Z,93.87
2019-01-29T03:23:17.116Z,94.09
2019-01-29T03:25:45.600Z,94.57
2019-01-29T03:28:14.069Z,95.08
2019-01-29T03:30:42.719Z,94.84
2019-01-29T03:33:11.167Z,94.98
2019-01-29T03:35:39.779Z,94.70
2019-01-29T03:38:08.380Z,93.59
2019-01-29T03:40:37.372Z,94.68
2019-01-29T03:43:05.903Z,93.92
2019-01-29T03:45:53.788Z,94.30
2019-01-29T03:48:22.317Z,94.49
2019-01-29T03:50:50.878Z,95.35
2019-01-29T03:53:19.463Z,94.66
2019-01-29T03:55:48.214Z,95.32
2019-01-29T03:58:17.020Z,94.62
2019-01-29T04:00:45.808Z,94.97
2019-01-29T04:03:14.309Z,94.46
2019-01-29T04:05:42.908Z,94.04
2019-01-29T04:08:11.768Z,93.23
2019-01-29T04:10:40.320Z,93.54
2019-01-29T04:13:08.841Z,92.92
2019-01-29T04:15:37.241Z,93.44
2019-01-29T04:18:05.856Z,93.42
2019-01-29T04:20:34.310Z,93.88
2019-01-29T04:23:02.813Z,93.99
2019-01-29T04:25:31.649Z,94.43
2019-01-29T04:28:00.124Z,94.49
2019-01-29T04:30:28.660Z,92.82
2019-01-29T04:32:57.309Z,93.75
2019-01-29T04:35:25.974Z,92.93
2019-01-29T04:37:54.592Z,93.20
2019-01-29T04:40:23.360Z,92.55
2019-01-29T04:42:51.928Z,91.86
2019-01-29T04:45:20.448Z,90.94
2019-01-29T04:47:49.012Z,90.97
2019-01-29T04:50:57.456Z,91.81
2019-01-29T04:53:25.962Z,91.86
2019-01-29T04:55:54.578Z,91.08
2019-01-29T04:58:22.962Z,91.51
2019-01-29T05:00:51.598Z,91.23
2019-01-29T05:03:20.144Z,90.99
2019-01-29T05:05:48.629Z,91.59
2019-01-29T05:08:17.039Z,90.74
2019-01-29T05:10:45.621Z,90.21
2019-01-29T05:13:14.054Z,90.30
2019-01-29T05:15:42.689Z,89.79
2019-01-29T05:18:11.666Z,89.14
2019-01-29T05:20:40.295Z,89.50
2019-01-29T05:23:08.770Z,89.65
2019-01-29T05:25:37.526Z,89.94
2019-01-29T05:31:14.531Z,89.35
2019-01-29T05:33:43.064Z,89.23
2019-01-29T05:36:11.705Z,88.60
2019-01-29T05:38:40.233Z,88.99
2019-01-29T05:41:08.691Z,89.12
2019-01-29T05:43:37.452Z,88.27
2019-01-29T05:46:06.188Z,89.44
2019-01-29T05:48:34.595Z,89.75
2019-01-29T05:51:03.073Z,90.04
2019-01-29T05:53:31.612Z,89.97
2019-01-29T05:56:00.120Z,89.80
2019-01-29T05:58:28.673Z,88.69
2019-01-29T06:00:57.236Z,89.61
2019-01-29T06:03:25.870Z,89.42
2019-01-29T06:05:54.458Z,89.80
2019-01-29T06:08:23.568Z,89.52
2019-01-29T06:10:52.395Z,89.64
2019-01-29T06:13:20.814Z,88.80
2019-01-29T06:15:49.279Z,89.37
2019-01-29T06:18:17.772Z,89.56
2019-01-29T06:20:46.287Z,89.47
2019-01-29T06:23:15.111Z,89.79
2019-01-29T06:25:43.643Z,89.39
2019-01-29T06:28:12.278Z,88.01
2019-01-29T06:30:40.878Z,88.59
2019-01-29T06:33:09.342Z,89.03
2019-01-29T06:35:37.857Z,89.73
2019-01-29T06:38:06.605Z,89.86
2019-01-29T06:40:35.120Z,90.03
2019-01-29T06:43:03.995Z,89.96
2019-01-29T06:45:32.477Z,88.91
2019-01-29T06:48:00.961Z,89.12
2019-01-29T06:50:29.419Z,88.56
2019-01-29T06:52:57.976Z,89.31
2019-01-29T06:56:06.846Z,89.17
2019-01-29T06:58:35.307Z,89.21
2019-01-29T07:01:03.877Z,88.33
2019-01-29T07:03:32.394Z,88.94
2019-01-29T07:06:00.894Z,89.03
2019-01-29T07:08:29.483Z,89.76
2019-01-29T07:10:58.267Z,90.35
2019-01-29T07:13:46.141Z,90.84
2019-01-29T07:21:32.529Z,91.88
2019-01-29T07:24:01.104Z,92.43
2019-01-29T07:26:29.702Z,92.65
2019-01-29T07:28:58.328Z,92.88
2019-01-29T07:31:26.853Z,93.46
2019-01-29T07:33:55.233Z,93.46
2019-01-29T07:36:23.680Z,93.56
2019-01-29T07:38:52.336Z,94.07
2019-01-29T07:41:20.877Z,94.25
2019-01-29T07:43:49.445Z,94.46
2019-01-29T07:46:17.953Z,94.01
2019-01-29T07:48:46.511Z,94.19
2019-01-29T07:51:15.056Z,94.47
2019-01-29T07:53:43.551Z,94.48
2019-01-29T07:56:12.218Z,95.02
2019-01-29T07:58:41.009Z,95.26
2019-01-29T08:01:09.506Z,95.25
2019-01-29T08:03:38.569Z,95.21
2019-01-29T08:06:08.531Z,94.64
2019-01-29T08:08:37.104Z,94.44
2019-01-29T08:11:05.700Z,94.41
2019-01-29T08:13:34.169Z,94.33
2019-01-29T08:16:03.146Z,94.65
2019-01-29T08:18:31.792Z,94.21
2019-01-29T08:21:00.523Z,94.12
2019-01-29T08:23:29.103Z,94.16
2019-01-29T08:25:57.550Z,93.61
2019-01-29T08:28:26.182Z,93.28
2019-01-29T08:30:54.815Z,93.59
2019-01-29T08:33:23.294Z,93.89
2019-01-29T08:35:51.990Z,93.76
2019-01-29T08:38:20.565Z,93.43
2019-01-29T08:40:49.103Z,93.65
2019-01-29T08:43:17.696Z,93.95
2019-01-29T08:45:46.189Z,94.06
2019-01-29T08:48:14.803Z,93.80
2019-01-29T08:50:43.406Z,93.76
2019-01-29T08:53:11.851Z,93.20
2019-01-29T08:55:40.417Z,93.03
2019-01-29T08:58:08.882Z,92.64
2019-01-29T09:00:37.426Z,92.59
2019-01-29T09:03:05.974Z,92.99
2019-01-29T09:05:34.520Z,93.24
2019-01-29T09:08:03.036Z,93.50
2019-01-29T09:10:31.618Z,93.32
2019-01-29T09:13:00.218Z,93.71
2019-01-29T09:15:28.762Z,93.99
2019-01-29T09:17:57.321Z,93.24
2019-01-29T09:20:25.858Z,93.51
2019-01-29T09:22:54.481Z,93.67
2019-01-29T09:25:23.167Z,93.71
2019-01-29T09:27:51.682Z,93.59
2019-01-29T09:31:00.157Z,93.69
2019-01-29T09:33:28.752Z,93.80
2019-01-29T09:35:57.434Z,93.69
2019-01-29T09:38:25.926Z,93.23
2019-01-29T09:40:54.965Z,93.36
2019-01-29T09:43:23.524Z,93.28
2019-01-29T09:45:52.383Z,93.51
2019-01-29T09:48:20.932Z,93.24
2019-01-29T09:50:49.508Z,93.80
2019-01-29T09:53:18.208Z,93.92
2019-01-29T09:55:46.755Z,93.75
2019-01-29T09:58:15.314Z,93.79
2019-01-29T10:00:44.251Z,93.47
2019-01-29T10:03:12.810Z,93.79
2019-01-29T10:05:41.807Z,93.26
2019-01-29T10:08:12.052Z,93.41
2019-01-29T10:10:40.627Z,93.32
2019-01-29T10:13:09.244Z,92.58
2019-01-29T10:16:17.706Z,91.94
2019-01-29T10:18:46.449Z,92.26
2019-01-29T10:21:14.896Z,92.60
2019-01-29T10:23:43.499Z,92.42
2019-01-29T10:26:12.065Z,91.60
2019-01-29T10:28:40.513Z,91.53
2019-01-29T10:31:09.564Z,91.25
2019-01-29T10:33:38.074Z,90.76
2019-01-29T10:36:46.597Z,90.25
2019-01-29T10:39:15.097Z,90.44
2019-01-29T10:41:43.564Z,89.74
2019-01-29T10:44:12.113Z,90.71
2019-01-29T10:46:40.694Z,89.67
2019-01-29T10:49:09.255Z,89.92
2019-01-29T10:51:37.859Z,89.92
2019-01-29T10:54:06.405Z,89.46
2019-01-29T10:56:34.992Z,90.43
2019-01-29T10:59:03.560Z,90.46
2019-01-29T11:01:32.086Z,90.23
2019-01-29T11:04:00.806Z,90.20
2019-01-29T11:06:29.359Z,90.11
2019-01-29T11:08:57.949Z,90.01
2019-01-29T11:11:26.495Z,89.66
2019-01-29T11:13:55.162Z,89.86
2019-01-29T11:16:23.760Z,89.89
2019-01-29T11:18:52.302Z,89.35
2019-01-29T11:21:20.951Z,89.96
2019-01-29T11:23:49.404Z,90.06
2019-01-29T11:26:18.063Z,90.82
2019-01-29T11:28:46.669Z,91.36
2019-01-29T11:31:15.335Z,91.46
2019-01-29T11:33:43.848Z,90.90
2019-01-29T11:36:12.615Z,91.20
2019-01-29T11:38:41.242Z,91.38
2019-01-29T11:41:09.695Z,91.35
2019-01-29T11:43:38.270Z,91.23
2019-01-29T11:46:06.880Z,91.01
2019-01-29T11:48:35.734Z,90.97
2019-01-29T11:51:04.356Z,90.96
2019-01-29T11:53:33.010Z,89.14
2019-01-29T11:56:04.656Z,90.22
2019-01-29T11:58:32.422Z,90.60
2019-01-29T12:03:50.066Z,90.47
2019-01-29T12:06:19.066Z,90.07
2019-01-29T12:09:07.604Z,89.63
2019-01-29T12:11:36.522Z,89.94
2019-01-29T12:14:05.111Z,89.49
2019-01-29T12:16:33.672Z,89.22
2019-01-29T12:19:02.200Z,87.87
2019-01-29T12:21:30.764Z,88.64
2019-01-29T12:23:59.340Z,88.99
2019-01-29T12:26:27.816Z,87.72
2019-01-29T12:28:56.360Z,87.07
2019-01-29T12:31:24.942Z,86.97
2019-01-29T12:33:53.381Z,86.01
2019-01-29T12:36:22.162Z,86.20
2019-01-29T12:38:50.643Z,83.96
2019-01-29T12:41:19.229Z,83.85
2019-01-29T12:43:48.243Z,84.02
2019-01-29T12:46:16.843Z,80.94
2019-01-29T12:48:45.296Z,82.63
2019-01-29T12:54:02.969Z,81.08
2019-01-29T12:56:31.507Z,81.16
2019-01-29T12:59:00.091Z,82.32
2019-01-29T13:01:28.659Z,82.65
2019-01-29T13:03:57.321Z,81.42
2019-01-29T13:06:25.808Z,82.32
2019-01-29T13:08:54.651Z,82.48
2019-01-29T13:11:23.223Z,81.59
2019-01-29T13:13:51.750Z,81.84
2019-01-29T13:16:20.301Z,83.51
2019-01-29T13:18:48.946Z,81.51
2019-01-29T13:21:17.472Z,82.02
2019-01-29T13:23:46.366Z,80.43
2019-01-29T13:26:14.871Z,81.31
2019-01-29T13:28:43.392Z,82.24
2019-01-29T13:31:11.943Z,81.88
2019-01-29T13:33:40.420Z,82.72
2019-01-29T13:36:09.039Z,83.22
2019-01-29T13:38:37.586Z,84.09
2019-01-29T13:41:06.215Z,84.90
2019-01-29T13:43:34.652Z,85.08
2019-01-29T13:46:03.252Z,84.82
2019-01-29T13:48:31.828Z,84.43
2019-01-29T13:51:40.320Z,83.88
2019-01-29T13:54:08.776Z,84.06
2019-01-29T13:56:38.913Z,84.13
2019-01-29T13:59:08.143Z,84.07
2019-01-29T14:01:36.742Z,83.98
2019-01-29T14:04:45.201Z,84.26
2019-01-29T14:07:13.755Z,84.77
2019-01-29T14:09:42.317Z,85.02
2019-01-29T14:12:10.851Z,85.00
2019-01-29T14:14:39.433Z,84.75
2019-01-29T14:17:08.359Z,84.84
2019-01-29T14:19:36.971Z,85.17
2019-01-29T14:22:45.427Z,84.91
2019-01-29T14:28:22.211Z,84.59
2019-01-29T14:30:50.626Z,85.27
2019-01-29T14:33:19.307Z,85.69
2019-01-29T14:35:47.885Z,86.10
2019-01-29T14:38:56.347Z,86.00
2019-01-29T14:41:24.850Z,85.94
2019-01-29T14:43:53.448Z,86.11
2019-01-29T14:46:22.067Z,86.08
2019-01-29T14:48:50.670Z,86.44
2019-01-29T14:51:19.293Z,86.31
2019-01-29T14:53:47.843Z,86.28
2019-01-29T14:56:16.341Z,85.96
2019-01-29T14:58:44.872Z,85.81
2019-01-29T15:01:13.438Z,85.92
2019-01-29T15:03:42.017Z,86.29
2019-01-29T15:06:10.635Z,86.58
2019-01-29T15:08:39.132Z,86.41
2019-01-29T15:11:07.724Z,86.25
2019-01-29T15:13:36.376Z,86.43
2019-01-29T15:16:44.879Z,86.70
2019-01-29T15:21:52.973Z,86.97
2019-01-29T15:24:21.474Z,86.93
2019-01-29T15:26:49.996Z,86.99
2019-01-29T15:29:18.394Z,87.40
2019-01-29T15:31:46.921Z,87.47
2019-01-29T15:34:16.000Z,87.43
2019-01-29T15:36:44.473Z,87.48
2019-01-29T15:39:12.977Z,87.84
2019-01-29T15:41:41.963Z,87.88
2019-01-29T15:44:11.055Z,87.91
2019-01-29T15:46:39.544Z,87.99
2019-01-29T15:49:07.995Z,88.09
2019-01-29T15:51:36.529Z,88.62
2019-01-29T15:54:24.538Z,88.66
2019-01-29T15:56:53.106Z,88.45
2019-01-29T15:59:21.612Z,88.49
2019-01-29T16:01:50.093Z,88.63
2019-01-29T16:04:19.322Z,89.03
2019-01-29T16:06:48.890Z,89.12
2019-01-29T16:09:17.418Z,89.34
2019-01-29T16:11:45.902Z,89.74
2019-01-29T16:14:14.528Z,89.79
2019-01-29T16:16:42.980Z,89.87
2019-01-29T16:19:11.612Z,90.07
2019-01-29T16:21:40.256Z,90.36
2019-01-29T16:24:08.912Z,90.38
2019-01-29T16:26:37.563Z,90.39
2019-01-29T16:29:06.085Z,90.64
2019-01-29T16:31:34.687Z,90.56
2019-01-29T16:36:52.287Z,90.89
2019-01-29T16:39:20.814Z,90.92
2019-01-29T16:41:49.454Z,90.89
2019-01-29T16:44:17.967Z,90.74
2019-01-29T16:46:46.505Z,90.77
2019-01-29T16:49:15.123Z,90.74
2019-01-29T16:51:43.698Z,90.54
2019-01-29T16:54:12.297Z,90.58
2019-01-29T16:56:40.905Z,90.58
2019-01-29T16:59:09.452Z,90.71
2019-01-29T17:01:37.928Z,90.75
2019-01-29T17:04:06.821Z,90.89
2019-01-29T17:06:35.381Z,90.86
2019-01-29T17:11:58.521Z,91.28
2019-01-29T17:14:27.030Z,91.17
2019-01-29T17:16:55.559Z,91.12
2019-01-29T17:19:24.242Z,91.14
2019-01-29T17:21:52.879Z,90.99
2019-01-29T17:24:21.439Z,91.02
2019-01-29T17:26:50.026Z,91.27
2019-01-29T17:29:18.577Z,91.26
2019-01-29T17:31:47.111Z,91.12
2019-01-29T17:34:15.641Z,91.56
2019-01-29T17:36:44.200Z,91.51
2019-01-29T17:39:12.727Z,91.42
2019-01-29T17:41:41.261Z,91.51
2019-01-29T17:44:09.910Z,91.47
2019-01-29T17:46:38.449Z,91.46
2019-01-29T17:49:07.113Z,91.27
2019-01-29T17:51:35.724Z,91.09
2019-01-29T17:54:04.352Z,90.95
2019-01-29T17:56:32.862Z,91.06
2019-01-29T17:59:01.338Z,91.29
2019-01-29T18:01:29.812Z,91.33
2019-01-29T18:03:58.240Z,91.22
2019-01-29T18:06:26.840Z,91.24
2019-01-29T18:08:55.309Z,91.25
2019-01-29T18:11:23.855Z,91.16
2019-01-29T18:13:52.365Z,90.85
2019-01-29T18:16:21.030Z,90.68
2019-01-29T18:18:49.664Z,90.82
2019-01-29T18:21:18.350Z,90.92
2019-01-29T18:23:46.908Z,90.93
2019-01-29T18:26:15.396Z,90.96
2019-01-29T18:28:43.871Z,90.69
2019-01-29T18:31:12.391Z,90.56
2019-01-29T18:33:40.995Z,90.58
2019-01-29T18:36:09.596Z,90.09
2019-01-29T18:38:38.108Z,90.37
2019-01-29T18:41:06.818Z,90.33
2019-01-29T18:43:35.302Z,90.42
2019-01-29T18:46:05.037Z,90.13
2019-01-29T18:48:34.113Z,90.47
2019-01-29T18:51:02.579Z,90.15
2019-01-29T18:53:31.160Z,90.44
2019-01-29T18:55:59.991Z,89.91
2019-01-29T18:58:28.504Z,90.28
2019-01-29T19:00:56.980Z,89.92
2019-01-29T19:03:25.481Z,90.11
2019-01-29T19:05:54.063Z,90.09
2019-01-29T19:08:22.615Z,89.82
2019-01-29T19:10:51.205Z,89.84
2019-01-29T19:13:19.848Z,89.59
2019-01-29T19:15:48.374Z,89.95
2019-01-29T19:18:16.954Z,89.94
2019-01-29T19:20:45.577Z,90.08
2019-01-29T19:23:14.054Z,90.24
2019-01-29T19:25:42.537Z,90.54
2019-01-29T19:28:21.414Z,90.08
2019-01-29T19:30:41.668Z,89.82
2019-01-29T19:33:10.237Z,89.73
2019-01-29T19:35:38.813Z,89.75
2019-01-29T19:38:07.544Z,89.62
2019-01-29T19:40:36.189Z,89.81
2019-01-29T19:43:04.938Z,89.82
2019-01-29T19:46:13.439Z,89.98
2019-01-29T19:48:42.000Z,89.89
2019-01-29T19:51:17.748Z,90.10
2019-01-29T19:53:46.370Z,90.38
2019-01-29T19:56:14.921Z,90.35
2019-01-29T19:58:43.430Z,90.24
2019-01-29T20:01:11.926Z,90.01
2019-01-29T20:03:40.500Z,89.94
2019-01-29T20:06:09.107Z,90.44
2019-01-29T20:11:13.007Z,89.79
2019-01-29T20:13:41.587Z,90.03
2019-01-29T20:16:10.224Z,90.10
2019-01-29T20:18:38.803Z,89.95
2019-01-29T20:21:07.288Z,89.66
2019-01-29T20:23:35.785Z,89.88
2019-01-29T20:26:04.466Z,90.16
2019-01-29T20:28:42.012Z,90.12
2019-01-29T20:31:03.213Z,89.87
2019-01-29T20:33:31.701Z,90.12
2019-01-29T20:36:00.284Z,90.22
2019-01-29T20:38:34.926Z,90.32
2019-01-29T20:40:59.101Z,90.28
2019-01-29T20:43:27.649Z,89.65
2019-01-29T20:45:56.135Z,89.46
2019-01-29T20:48:24.696Z,89.01
2019-01-29T20:50:53.205Z,89.15
2019-01-29T20:53:23.687Z,89.09
2019-01-29T20:55:52.039Z,89.30
2019-01-29T20:58:20.834Z,89.76
2019-01-29T21:00:49.389Z,89.33
2019-01-29T21:03:17.886Z,89.19
2019-01-29T21:05:46.431Z,89.36
2019-01-29T21:08:15.021Z,89.45
2019-01-29T21:10:43.556Z,89.69
2019-01-29T21:13:12.071Z,89.55
2019-01-29T21:15:40.949Z,89.74
2019-01-29T21:18:09.508Z,89.84
2019-01-29T21:20:38.076Z,89.54
2019-01-29T21:23:06.623Z,89.70
2019-01-29T21:25:35.276Z,90.14
2019-01-29T21:28:03.779Z,90.31
2019-01-29T21:31:12.212Z,90.18
2019-01-29T21:33:40.655Z,89.87
2019-01-29T21:36:09.190Z,89.79
2019-01-29T21:38:37.701Z,89.83
2019-01-29T21:41:06.445Z,89.95
2019-01-29T21:43:34.860Z,89.87
2019-01-29T21:46:03.376Z,89.65
2019-01-29T21:48:32.006Z,89.79
2019-01-29T21:51:00.842Z,90.09
2019-01-29T21:53:29.382Z,90.31
2019-01-29T21:55:57.920Z,90.28
2019-01-29T21:58:26.509Z,90.34
2019-01-29T22:00:55.110Z,90.22
2019-01-29T22:03:23.668Z,90.34
2019-01-29T22:05:52.202Z,89.94
2019-01-29T22:08:20.787Z,90.01
2019-01-29T22:10:49.418Z,90.07
2019-01-29T22:13:18.022Z,89.92
2019-01-29T22:15:46.537Z,89.93
2019-01-29T22:18:15.072Z,89.97
2019-01-29T22:20:43.650Z,89.98
2019-01-29T22:23:12.249Z,89.99
2019-01-29T22:25:41.134Z,89.67
2019-01-29T22:28:09.605Z,89.67
2019-01-29T22:31:18.362Z,89.66
2019-01-29T22:33:46.824Z,89.63
2019-01-29T22:36:15.326Z,89.59
2019-01-29T22:38:43.773Z,89.77
2019-01-29T22:41:12.333Z,89.86
2019-01-29T22:43:40.808Z,89.70
2019-01-29T22:46:09.450Z,89.82
2019-01-29T22:48:38.131Z,89.87
2019-01-29T22:51:06.586Z,90.03
2019-01-29T22:53:35.211Z,89.92
2019-01-29T22:56:04.092Z,90.08
2019-01-29T22:58:32.579Z,90.08
2019-01-29T23:01:39.764Z,90.08
2019-01-29T23:04:48.270Z,90.17
2019-01-29T23:07:16.817Z,90.18
2019-01-29T23:09:45.376Z,90.32
2019-01-29T23:12:13.832Z,90.38
2019-01-29T23:14:42.392Z,90.50
2019-01-29T23:17:10.920Z,90.52
2019-01-29T23:19:39.796Z,90.37
2019-01-29T23:22:08.330Z,90.19
2019-01-29T23:24:36.791Z,90.33
2019-01-29T23:27:45.209Z,90.62
2019-01-29T23:30:33.067Z,90.65
2019-01-29T23:33:01.592Z,90.98
2019-01-29T23:35:30.131Z,91.20
2019-01-29T23:37:58.609Z,91.25
2019-01-29T23:40:27.090Z,91.18
2019-01-29T23:42:55.541Z,91.31
2019-01-29T23:45:24.049Z,91.37
2019-01-29T23:50:41.612Z,91.47
2019-01-29T23:53:10.124Z,91.43
2019-01-29T23:55:38.645Z,91.48
2019-01-29T23:58:47.178Z,91.50
